Главная страница
METAR-TAF:

METAR-TAF

Аэропорты :

Ивало, Финляндия

широта: 68-37N, долгота: 027-25E, высота над уровнем моря: 147 м

Текущие метеонаблюдения

Эта сводка был подготовлена 16 минут назад, в 09:20 UTC
Ветер 4 Узел от юго-западный
Температура 1°C
Влажность 93%
Давление 1015 hPa
Видимость 10 км и более
небольшая облачность на высоте 800 фута
Отдельные облака на высоте 1900 фута

METAR: EFIV 200920Z 23004KT 9999 FEW008 SCT019 01/M00 Q1015

Время: 12:36 (09:36 UTC)

Прогноз

Эта сводка был подготовлена 3 часа и 59 минут назад, в 05:37 UTC
Прогноз действительный с 20-го 06 UTC до 20-го 10 UTC
Ветер 6 Узел от западный-юго-западный
Видимость 10 км и более
Рассеянная облачность на высоте 2000 фута
Вероятность 30%
С 20-го 08 UTC до 20-го 10 UTC
Видимость: 2000 м
Рассеянная облачность на высоте 200 фута
дымка

TAF: EFIV 200537Z 2006/2010 24006KT 9999 BKN020 PROB30 2008/2010 2000 BR BKN002

Метеонаблюдения и прогнозы для более 4000 аэропортов (сводки METAR и TAF).

Имеющиеся станции представлены на карте желтыми и красными точками.

Чтобы увидеть название станции, наведите на нее мышь.

Затем щелкните, чтобы увидеть метеонаблюдения и метеопрогнозы.

Управление картой: чтобы увеличить масштаб, щелкните зеленые кнопки с черным крестиком; чтобы уменьшить масштаб, щелкните зеленую кнопку с тире; для просмотра соседних карт щелкайте зеленые стрелки.


METAR-TAF: